KPVD/PVD METAR and TAF weather

Enter ICAO airport designator
Station Type Date Time Source
KPVD METAR 2021/09/24 05:23 UTC NOAA

KPVD 240523Z AUTO 16008KT 10SM SCT027 BKN033 OVC060 23/21 A3004 RMK AO2 T02330211


Station Type Date Time Source
KPVD Decoded METAR 2021/09/24 05:23 UTC NOAA

PROVIDENCE GREEN STATE AIRPORT , RI, United States (KPVD) 41-44N 071-26W 16M
Sep 24, 2021 - 01:23 AM EDT / 2021.09.24 0523 UTC
Wind: from the SSE (160 degrees) at 9 MPH (8 KT):0
Visibility: 10 mile(s):0
Sky conditions: overcast
Temperature: 73.9 F (23.3 C)
Dew Point: 70.0 F (21.1 C)
Relative Humidity: 87%
Pressure (altimeter): 30.04 in. Hg (1017 hPa)
ob: KPVD 240523Z AUTO 16008KT 10SM SCT027 BKN033 OVC060 23/21 A3004 RMK AO2 T02330211
cycle: 5

Station Type Date Time Source
KPVD TAF 2021/09/24 06:22 UTC NOAA

TAF KPVD 240520Z 2406/2506 16011KT P6SM VCSH OVC027
FM240800 15010G21KT P6SM VCSH OVC015
FM241500 17011G25KT 6SM -SHRA BR OVC015
FM241900 18009KT 6SM -SHRA BR OVC020
FM242200 19005KT P6SM VCSH OVC025
FM250200 29004KT P6SM VCSH BKN035

Example: see airport list